Four Corners Regional Airport
KFMN : rendu visible

Aérodrome :











RETROUVEZ-NOUS SUR...

 
LOGIN :

S'inscrire | Disclaimer

   EN    FR    IT 

 









Légende :    VFR   VFR Marginal   IFR   IFR Intensif   IFR Très Intensif
Visi : 
Plafond : 
>= 8 km
>= 3000ft
5 à 8 km
1000 à 3000 ft
1500m à 5 km
500 à 1000 ft
800 à 1500m
200 à 500 ft
< 800m
< 200 ft
Symboles :   Orages  Brouillard  Fortes neiges  Fortes précipitations  Vent > 20 kt






- Altitude de l'aérodrome : 5506 ft


KFMN - Four Corners Regional

DERNIER METAR :
  • 081753Z 14004KT 10SM CLR 18/M07 A3015 RMK AO2 SLP184 T01831067 10183 20000 58005

METARs EXPIRÉS :
  • 081653Z VRB03KT 10SM CLR 14/M07 A3017 RMK AO2 SLP196 T01441072
  • 081553Z 12006KT 10SM CLR 11/M07 A3017 RMK AO2 SLP197 T01061067

TAF KFMN
Valide du 08 à 18h jusqu'au 09 à 18h UTC


081720Z 0818/0918 16006KT P6SM SKC
FM082000 19007KT P6SM SCT100
FM090000 12010KT P6SM BKN120
FM090500 09008KT P6SM BKN150
FM091600 24007KT P6SM SCT150



MET'MAP, la Météo Aéronautique d'un coup d'oeil ! - Copyright ORBIFLY Décembre 2007 - Disclaimer

ORBIFLY MET'MAP TEAM :

Programmation & Développement : Alexandra Zaïnal
Sur une idée originale de : Baudouin d'Aumeries
Assistance à la programmation : Marc-Olivier Méhu
Soutien technique & logistique : Manuel Goepfert

Contact : metmap@orbifly.com




SOURCES & CREDITS :

   NOAA       Earth
Advisory